Hammerfest, Hammerfest Airport (ENHF)

NameHammerfest Airport
CityHammerfest
CountryNorway
ICAOENHF
IATAHFT
Altitude80 m
CoordinatesGoogle Map
Live Air TrafficLiveATC.net
METARENHF 110450Z 01007KT 9999 -SHSN SCT017 BKN028 00/M03 Q1019 RMK WIND 1254FT 01010KT
2018-12-11 04:50:00 Wind: North (10°) 3.6 m/s - Visibility: > 10000 m - Weather: Light Showers Snow - Temperature: 0 °C - Dew point: -3 °C - Humidity: 80.5% - Pressure: 1019 hPa
Statistics

The table below shows the detailed information of all flights to/from Hammerfest, Hammerfest Airport (ENHF).